Time;durP1;ratioP1;P1;durP2;ratioP2;P2;SDS_P1;SDS_P2;PMS_P1;PMS_P2;Temp;Humidity;BMP_temperature;BMP_pressure;BME280_temperature;BME280_humidity;BME280_pressure;Samples;Min_cycle;Max_cycle;Signal;HPM_P1;HPM_P2
2024/01/11 00:01:26;;;;;;;385.90;177.80;;;;;;;;;;10087310;29;20121;-79
2024/01/11 00:06:27;;;;;;;347.67;152.37;;;;;;;;;;10087315;29;20033;-80
2024/01/11 00:11:28;;;;;;;385.17;184.63;;;;;;;;;;10092113;29;20433;-80
2024/01/11 00:16:29;;;;;;;388.30;181.10;;;;;;;;;;10087417;29;20043;-79
2024/01/11 00:21:30;;;;;;;327.37;147.97;;;;;;;;;;10096379;29;20033;-80
2024/01/11 00:26:31;;;;;;;358.00;161.47;;;;;;;;;;10087363;29;20051;-80
2024/01/11 00:31:32;;;;;;;372.47;167.00;;;;;;;;;;10088468;29;20051;-79
2024/01/11 00:36:34;;;;;;;402.77;185.40;;;;;;;;;;10087100;29;20481;-78
2024/01/11 00:41:35;;;;;;;391.03;180.57;;;;;;;;;;10099383;29;20055;-81
2024/01/11 00:46:38;;;;;;;371.90;163.63;;;;;;;;;;10097956;29;20085;-80
2024/01/11 00:51:39;;;;;;;356.30;161.70;;;;;;;;;;10090858;29;20052;-79
2024/01/11 00:56:40;;;;;;;364.87;156.47;;;;;;;;;;10097705;29;20092;-79
2024/01/11 01:01:41;;;;;;;339.73;154.47;;;;;;;;;;10081517;23;20113;-81
2024/01/11 01:06:49;;;;;;;364.63;159.27;;;;;;;;;;10055787;29;20033;-79
2024/01/11 01:11:50;;;;;;;340.33;150.60;;;;;;;;;;10055425;29;20041;-80
2024/01/11 01:16:51;;;;;;;341.33;153.33;;;;;;;;;;10055568;29;20508;-79
2024/01/11 01:21:52;;;;;;;379.03;167.73;;;;;;;;;;10053174;29;20037;-78
2024/01/11 01:26:53;;;;;;;328.37;145.40;;;;;;;;;;10053708;29;20037;-81
2024/01/11 01:31:54;;;;;;;363.37;161.73;;;;;;;;;;10053555;29;20570;-80
2024/01/11 01:36:55;;;;;;;351.77;162.40;;;;;;;;;;10059186;29;20104;-79
2024/01/11 01:41:56;;;;;;;328.87;152.30;;;;;;;;;;10053219;29;20497;-80
2024/01/11 01:46:57;;;;;;;334.83;152.37;;;;;;;;;;10053754;29;20116;-80
2024/01/11 01:51:59;;;;;;;335.33;146.93;;;;;;;;;;10053289;29;20492;-78
2024/01/11 01:57:00;;;;;;;309.30;137.70;;;;;;;;;;10053125;29;20038;-79
2024/01/11 02:02:01;;;;;;;325.03;137.20;;;;;;;;;;10052171;29;20422;-79
2024/01/11 02:07:02;;;;;;;280.73;123.07;;;;;;;;;;10053190;29;20589;-79
2024/01/11 02:12:12;;;;;;;262.27;119.23;;;;;;;;;;10052374;29;20052;-79
2024/01/11 02:17:13;;;;;;;284.03;122.87;;;;;;;;;;10053444;29;20056;-78
2024/01/11 02:22:41;;;;;;;286.47;123.33;;;;;;;;;;10052546;29;20173;-79
2024/01/11 02:27:46;;;;;;;300.33;127.77;;;;;;;;;;10052587;29;20045;-80
2024/01/11 02:32:49;;;;;;;283.27;120.57;;;;;;;;;;10051957;29;20049;-80
2024/01/11 02:37:50;;;;;;;306.47;130.03;;;;;;;;;;10052830;29;20100;-78
2024/01/11 02:42:51;;;;;;;280.20;118.20;;;;;;;;;;10051035;29;20037;-80
2024/01/11 02:47:52;;;;;;;275.43;121.03;;;;;;;;;;10052385;29;20031;-79
2024/01/11 02:52:53;;;;;;;305.93;131.63;;;;;;;;;;10051804;29;20041;-78
2024/01/11 02:58:06;;;;;;;259.73;115.37;;;;;;;;;;10033359;29;20050;-79
2024/01/11 03:03:07;;;;;;;252.70;109.03;;;;;;;;;;10050635;29;20057;-79
2024/01/11 03:08:08;;;;;;;262.57;113.23;;;;;;;;;;10050061;29;20743;-80
2024/01/11 03:13:09;;;;;;;262.70;117.33;;;;;;;;;;10049816;29;20600;-79
2024/01/11 03:18:10;;;;;;;279.23;122.67;;;;;;;;;;10045864;29;20045;-78
2024/01/11 03:23:11;;;;;;;277.80;129.10;;;;;;;;;;10050063;29;20040;-80
2024/01/11 03:28:13;;;;;;;264.43;116.20;;;;;;;;;;10051924;29;20117;-78
2024/01/11 03:33:14;;;;;;;281.23;122.77;;;;;;;;;;10060683;29;20660;-79
2024/01/11 03:38:15;;;;;;;281.83;117.83;;;;;;;;;;10048966;29;20039;-78
2024/01/11 03:43:19;;;;;;;273.20;119.70;;;;;;;;;;10048809;29;20493;-80
2024/01/11 03:48:20;;;;;;;273.53;116.40;;;;;;;;;;10049934;29;20025;-79
2024/01/11 03:53:21;;;;;;;275.67;117.10;;;;;;;;;;10049522;29;20493;-78
2024/01/11 03:58:22;;;;;;;255.67;104.73;;;;;;;;;;10050047;29;20056;-80
2024/01/11 04:03:23;;;;;;;245.30;106.13;;;;;;;;;;10048222;29;20917;-80
2024/01/11 04:08:24;;;;;;;232.33;100.53;;;;;;;;;;10048869;29;20145;-79
2024/01/11 04:13:25;;;;;;;242.83;103.07;;;;;;;;;;10032543;29;20511;-79
2024/01/11 04:18:26;;;;;;;240.60;101.07;;;;;;;;;;10048158;29;20076;-79
2024/01/11 04:23:27;;;;;;;243.73;97.70;;;;;;;;;;10048879;29;20421;-79
2024/01/11 04:28:28;;;;;;;253.10;109.13;;;;;;;;;;10048155;29;20137;-80
2024/01/11 04:33:29;;;;;;;250.60;103.07;;;;;;;;;;10031206;29;20410;-82
2024/01/11 04:38:30;;;;;;;246.67;103.90;;;;;;;;;;10048235;29;20030;-78
2024/01/11 04:43:31;;;;;;;204.77;89.43;;;;;;;;;;10047949;29;20491;-79
2024/01/11 04:48:32;;;;;;;178.80;82.13;;;;;;;;;;10047797;29;20160;-79
2024/01/11 04:53:33;;;;;;;233.27;95.43;;;;;;;;;;10047288;29;20566;-79
2024/01/11 04:58:36;;;;;;;208.53;92.27;;;;;;;;;;10046737;29;20086;-78
2024/01/11 05:03:37;;;;;;;224.20;91.10;;;;;;;;;;10047401;29;20429;-77
2024/01/11 05:08:38;;;;;;;185.83;83.03;;;;;;;;;;10047512;29;20046;-80
2024/01/11 05:13:47;;;;;;;194.30;82.57;;;;;;;;;;10047033;29;20037;-81
2024/01/11 05:18:48;;;;;;;192.13;83.30;;;;;;;;;;10037328;29;20049;-79
2024/01/11 05:23:49;;;;;;;175.87;78.43;;;;;;;;;;10046379;29;20026;-80
2024/01/11 05:28:50;;;;;;;184.00;80.00;;;;;;;;;;10057402;29;20162;-80
2024/01/11 05:33:51;;;;;;;178.60;77.87;;;;;;;;;;10045661;29;20112;-79
2024/01/11 05:38:52;;;;;;;182.53;81.67;;;;;;;;;;10054543;29;20034;-80
2024/01/11 05:43:54;;;;;;;177.90;75.60;;;;;;;;;;10054464;29;20783;-80
2024/01/11 05:48:55;;;;;;;183.87;80.20;;;;;;;;;;10054505;29;20086;-79
2024/01/11 05:53:56;;;;;;;196.90;81.87;;;;;;;;;;10054730;29;20036;-80
2024/01/11 05:58:58;;;;;;;214.17;89.70;;;;;;;;;;10053571;29;20496;-80
2024/01/11 06:03:59;;;;;;;240.40;93.53;;;;;;;;;;10053619;29;20088;-80
2024/01/11 06:09:04;;;;;;;209.43;91.50;;;;;;;;;;10052606;29;20036;-80
2024/01/11 06:14:05;;;;;;;209.93;91.07;;;;;;;;;;10053843;29;20124;-78
2024/01/11 06:19:07;;;;;;;204.23;90.80;;;;;;;;;;10053381;29;20061;-79
2024/01/11 06:24:08;;;;;;;203.67;87.37;;;;;;;;;;10053365;29;20036;-82
2024/01/11 06:29:09;;;;;;;186.23;83.37;;;;;;;;;;10052803;29;20192;-81
2024/01/11 06:34:10;;;;;;;178.00;78.23;;;;;;;;;;10052238;29;20140;-81
2024/01/11 06:39:12;;;;;;;201.43;83.97;;;;;;;;;;10052179;29;20034;-78
2024/01/11 06:44:14;;;;;;;218.57;90.63;;;;;;;;;;10052117;29;20039;-79
2024/01/11 06:49:15;;;;;;;196.87;85.93;;;;;;;;;;10051918;29;20045;-78
2024/01/11 06:54:16;;;;;;;205.33;83.43;;;;;;;;;;10035510;29;20046;-79
2024/01/11 06:59:17;;;;;;;202.13;76.80;;;;;;;;;;10050519;29;20105;-80
2024/01/11 07:04:18;;;;;;;208.63;83.90;;;;;;;;;;10051347;29;20390;-78
2024/01/11 07:09:20;;;;;;;179.70;74.50;;;;;;;;;;10051268;29;20068;-78
2024/01/11 07:14:21;;;;;;;167.50;69.47;;;;;;;;;;10052044;29;20133;-78
2024/01/11 07:19:22;;;;;;;181.73;75.27;;;;;;;;;;10050539;29;20029;-80
2024/01/11 07:24:23;;;;;;;175.20;75.67;;;;;;;;;;10050482;29;20078;-79
2024/01/11 07:29:24;;;;;;;189.30;83.23;;;;;;;;;;10050563;29;20042;-80
2024/01/11 07:34:25;;;;;;;236.83;102.27;;;;;;;;;;10050443;29;20069;-78
2024/01/11 07:39:26;;;;;;;160.93;72.20;;;;;;;;;;10050721;29;20032;-79
2024/01/11 07:44:27;;;;;;;162.43;72.67;;;;;;;;;;10050869;29;20037;-80
2024/01/11 07:49:28;;;;;;;164.57;65.67;;;;;;;;;;10050271;29;20037;-79
2024/01/11 07:54:29;;;;;;;147.43;63.83;;;;;;;;;;10049319;29;20029;-79
2024/01/11 07:59:40;;;;;;;135.87;62.37;;;;;;;;;;10048390;29;20041;-80
2024/01/11 08:04:41;;;;;;;156.90;69.93;;;;;;;;;;10049369;29;20044;-80
2024/01/11 08:09:45;;;;;;;152.43;67.73;;;;;;;;;;10049001;29;20036;-81
2024/01/11 08:14:46;;;;;;;151.30;69.27;;;;;;;;;;10048517;29;20025;-79
2024/01/11 08:19:47;;;;;;;142.67;66.33;;;;;;;;;;10048525;29;20045;-80
2024/01/11 08:24:48;;;;;;;143.40;60.70;;;;;;;;;;10049134;29;20485;-80
2024/01/11 08:29:49;;;;;;;147.53;60.23;;;;;;;;;;10048739;29;20055;-80
2024/01/11 08:34:51;;;;;;;134.97;53.60;;;;;;;;;;10049074;29;20390;-81
2024/01/11 08:39:52;;;;;;;131.57;54.07;;;;;;;;;;10048853;29;20489;-79
2024/01/11 08:44:53;;;;;;;119.07;50.27;;;;;;;;;;10048413;29;20048;-80
2024/01/11 08:49:56;;;;;;;146.13;60.60;;;;;;;;;;10047755;29;20067;-79
2024/01/11 08:54:56;;;;;;;152.07;63.07;;;;;;;;;;10048179;29;20036;-82
2024/01/11 08:59:58;;;;;;;125.13;51.60;;;;;;;;;;10047405;29;20053;-79
2024/01/11 09:04:59;;;;;;;111.10;50.47;;;;;;;;;;10048459;29;20041;-79
2024/01/11 09:10:00;;;;;;;108.83;44.20;;;;;;;;;;10048517;29;20045;-79
2024/01/11 09:15:07;;;;;;;108.83;45.20;;;;;;;;;;10056172;29;20026;-79
2024/01/11 09:20:09;;;;;;;108.30;47.23;;;;;;;;;;10055737;29;20037;-81
2024/01/11 09:25:10;;;;;;;115.30;49.77;;;;;;;;;;10054971;29;20044;-80
2024/01/11 09:30:11;;;;;;;118.47;48.47;;;;;;;;;;10055522;29;20051;-79
2024/01/11 09:35:12;;;;;;;111.80;48.13;;;;;;;;;;10054176;29;20275;-80
2024/01/11 09:40:13;;;;;;;112.93;45.57;;;;;;;;;;10054506;29;20036;-81
2024/01/11 09:45:15;;;;;;;101.73;37.77;;;;;;;;;;10054772;29;20142;-79
2024/01/11 09:50:17;;;;;;;92.07;37.20;;;;;;;;;;10053707;29;20472;-80
2024/01/11 09:55:18;;;;;;;81.83;33.87;;;;;;;;;;10053731;29;20570;-79
2024/01/11 10:00:22;;;;;;;95.47;39.47;;;;;;;;;;10053259;29;20071;-80
2024/01/11 10:05:23;;;;;;;87.90;38.80;;;;;;;;;;10053403;29;20033;-80
2024/01/11 10:10:24;;;;;;;79.67;33.53;;;;;;;;;;10053204;29;20763;-79
2024/01/11 10:15:25;;;;;;;79.70;31.53;;;;;;;;;;10053972;29;20033;-78
2024/01/11 10:20:29;;;;;;;74.03;30.80;;;;;;;;;;10053574;29;20537;-80
2024/01/11 10:25:30;;;;;;;93.43;39.53;;;;;;;;;;10052806;29;20076;-79
2024/01/11 10:30:32;;;;;;;95.73;39.60;;;;;;;;;;10053506;29;20042;-78
2024/01/11 10:35:35;;;;;;;75.33;29.57;;;;;;;;;;10052900;29;20053;-80
2024/01/11 10:40:36;;;;;;;78.03;32.20;;;;;;;;;;10052369;29;20494;-80
2024/01/11 10:45:41;;;;;;;90.37;35.87;;;;;;;;;;10051632;29;20034;-79
2024/01/11 10:50:43;;;;;;;107.27;41.07;;;;;;;;;;10052012;29;20506;-80
2024/01/11 10:55:45;;;;;;;93.20;36.40;;;;;;;;;;10051407;29;20069;-79
2024/01/11 11:00:48;;;;;;;83.50;36.27;;;;;;;;;;10051637;29;20077;-81
2024/01/11 11:05:52;;;;;;;76.80;30.67;;;;;;;;;;10051617;29;20025;-78
2024/01/11 11:11:01;;;;;;;74.13;31.77;;;;;;;;;;10050968;29;20052;-79
2024/01/11 11:16:03;;;;;;;84.07;33.83;;;;;;;;;;10051302;29;20037;-80
2024/01/11 11:21:14;;;;;;;66.00;27.33;;;;;;;;;;10050724;29;20033;-80
2024/01/11 11:26:16;;;;;;;77.53;32.50;;;;;;;;;;10050005;29;20120;-80
2024/01/11 11:31:36;;;;;;;73.53;33.43;;;;;;;;;;10050354;29;20042;-79
2024/01/11 11:36:37;;;;;;;78.03;31.10;;;;;;;;;;10050160;29;20475;-80
2024/01/11 11:41:46;;;;;;;97.23;39.90;;;;;;;;;;10050225;29;20049;-79
2024/01/11 11:46:47;;;;;;;79.40;33.30;;;;;;;;;;10050339;29;20034;-80
2024/01/11 11:51:48;;;;;;;108.50;43.80;;;;;;;;;;10049268;29;20699;-79
2024/01/11 11:56:49;;;;;;;97.13;40.63;;;;;;;;;;10049572;29;20050;-79
2024/01/11 12:01:57;;;;;;;95.73;39.60;;;;;;;;;;10049240;29;20068;-79
2024/01/11 12:06:58;;;;;;;84.57;37.00;;;;;;;;;;10049376;29;20033;-81
2024/01/11 12:11:59;;;;;;;90.93;38.33;;;;;;;;;;10049625;29;20101;-81
2024/01/11 12:17:00;;;;;;;84.20;37.63;;;;;;;;;;10050791;29;20037;-81
2024/01/11 12:22:01;;;;;;;75.73;33.83;;;;;;;;;;10049676;29;20037;-78
2024/01/11 12:27:03;;;;;;;66.53;30.30;;;;;;;;;;10049460;29;20030;-81
2024/01/11 12:32:04;;;;;;;79.50;33.33;;;;;;;;;;10049055;29;20046;-79
2024/01/11 12:37:06;;;;;;;79.00;32.97;;;;;;;;;;10048956;29;20770;-80
2024/01/11 12:42:07;;;;;;;65.23;29.80;;;;;;;;;;10048791;29;20037;-81
2024/01/11 12:47:08;;;;;;;75.07;29.97;;;;;;;;;;10048590;29;20383;-79
2024/01/11 12:52:15;;;;;;;71.23;31.37;;;;;;;;;;10048810;29;20049;-80
2024/01/11 12:57:19;;;;;;;74.33;32.23;;;;;;;;;;10048136;29;20121;-81
2024/01/11 13:02:27;;;;;;;66.27;27.73;;;;;;;;;;10048032;29;20061;-80
2024/01/11 13:07:28;;;;;;;78.30;30.80;;;;;;;;;;10048150;29;20038;-78
2024/01/11 13:12:29;;;;;;;59.83;25.90;;;;;;;;;;10047540;29;20047;-80
2024/01/11 13:17:30;;;;;;;72.50;30.70;;;;;;;;;;10046924;29;20029;-80
2024/01/11 13:22:31;;;;;;;59.60;26.40;;;;;;;;;;10046599;29;20043;-80
2024/01/11 13:27:32;;;;;;;67.43;28.63;;;;;;;;;;10047980;29;20386;-79
2024/01/11 13:32:33;;;;;;;73.77;29.23;;;;;;;;;;10046856;29;20045;-79
2024/01/11 13:37:34;;;;;;;65.13;26.67;;;;;;;;;;10043903;29;20780;-78
2024/01/11 13:42:35;;;;;;;63.20;25.80;;;;;;;;;;10046419;29;20097;-78
2024/01/11 13:47:36;;;;;;;57.53;25.63;;;;;;;;;;10045987;29;20534;-79
2024/01/11 13:52:37;;;;;;;64.17;25.40;;;;;;;;;;10047002;29;20504;-82
2024/01/11 13:57:38;;;;;;;61.53;24.67;;;;;;;;;;10048107;29;20027;-78
2024/01/11 14:02:40;;;;;;;54.83;23.47;;;;;;;;;;10052772;29;20460;-78
2024/01/11 14:07:42;;;;;;;54.30;23.20;;;;;;;;;;10050732;29;20683;-80
2024/01/11 14:12:49;;;;;;;59.90;24.13;;;;;;;;;;10040560;29;20060;-81
2024/01/11 14:17:50;;;;;;;59.23;23.83;;;;;;;;;;10052173;29;20451;-82
2024/01/11 14:22:51;;;;;;;55.20;23.40;;;;;;;;;;10053323;29;20038;-80
2024/01/11 14:27:52;;;;;;;55.57;24.60;;;;;;;;;;10052910;29;20429;-78
2024/01/11 14:32:54;;;;;;;65.03;25.17;;;;;;;;;;10052607;29;20044;-80
2024/01/11 14:37:55;;;;;;;57.40;25.63;;;;;;;;;;10050043;29;20443;-80
2024/01/11 14:42:56;;;;;;;69.10;28.70;;;;;;;;;;10051488;29;20140;-79
2024/01/11 14:47:58;;;;;;;64.80;25.97;;;;;;;;;;10048429;29;20029;-80
2024/01/11 14:52:59;;;;;;;62.40;26.97;;;;;;;;;;10039045;29;20037;-81
2024/01/11 14:58:00;;;;;;;62.63;26.33;;;;;;;;;;10050994;29;20073;-79
2024/01/11 15:03:01;;;;;;;66.73;26.77;;;;;;;;;;10050677;29;20061;-79
2024/01/11 15:08:03;;;;;;;68.13;27.80;;;;;;;;;;10049421;29;20044;-79
2024/01/11 15:13:11;;;;;;;70.80;29.83;;;;;;;;;;10053456;29;20862;-79
2024/01/11 15:18:12;;;;;;;66.63;28.50;;;;;;;;;;10051211;29;20121;-80
2024/01/11 15:23:13;;;;;;;80.50;34.77;;;;;;;;;;10050127;29;20052;-78
2024/01/11 15:28:13;;;;;;;123.93;51.20;;;;;;;;;;10049439;29;20055;-81
2024/01/11 15:33:15;;;;;;;85.47;34.43;;;;;;;;;;10049769;29;20045;-82
2024/01/11 15:38:16;;;;;;;124.40;51.00;;;;;;;;;;10049796;29;20044;-80
2024/01/11 15:43:17;;;;;;;76.50;32.60;;;;;;;;;;10058243;29;20550;-80
2024/01/11 15:48:18;;;;;;;78.80;32.17;;;;;;;;;;10050542;29;20037;-81
2024/01/11 15:53:19;;;;;;;140.53;52.53;;;;;;;;;;10055827;29;20049;-81
2024/01/11 15:58:20;;;;;;;73.33;31.90;;;;;;;;;;10065269;29;20044;-79
2024/01/11 16:03:21;;;;;;;156.60;55.97;;;;;;;;;;10048093;29;20076;-81
2024/01/11 16:08:22;;;;;;;114.03;43.77;;;;;;;;;;10053267;29;20113;-80
2024/01/11 16:13:23;;;;;;;105.40;43.00;;;;;;;;;;10053700;29;20133;-81
2024/01/11 16:18:24;;;;;;;119.70;42.83;;;;;;;;;;10054991;29;20041;-81
2024/01/11 16:23:25;;;;;;;89.17;36.20;;;;;;;;;;10049114;29;20081;-81
2024/01/11 16:28:27;;;;;;;88.63;35.30;;;;;;;;;;10048699;29;20029;-80
2024/01/11 16:33:29;;;;;;;90.77;35.97;;;;;;;;;;10039271;29;20549;-81
2024/01/11 16:38:30;;;;;;;109.10;45.97;;;;;;;;;;10047627;29;20034;-81
2024/01/11 16:43:31;;;;;;;89.27;37.90;;;;;;;;;;10051087;29;20041;-79
2024/01/11 16:48:39;;;;;;;84.40;37.17;;;;;;;;;;10054543;29;20045;-80
2024/01/11 16:53:43;;;;;;;75.77;34.70;;;;;;;;;;10049919;29;20050;-79
2024/01/11 16:58:44;;;;;;;91.17;36.03;;;;;;;;;;10056685;29;20085;-79
2024/01/11 17:03:45;;;;;;;73.57;33.00;;;;;;;;;;10046528;29;20533;-79
2024/01/11 17:08:46;;;;;;;71.43;32.40;;;;;;;;;;10056974;29;20040;-81
2024/01/11 17:13:47;;;;;;;70.50;30.47;;;;;;;;;;10029226;29;20044;-80
2024/01/11 17:18:48;;;;;;;75.03;30.37;;;;;;;;;;10054222;29;20505;-79
2024/01/11 17:23:56;;;;;;;91.13;38.80;;;;;;;;;;10052992;29;20098;-80
2024/01/11 17:28:57;;;;;;;79.53;35.40;;;;;;;;;;10065541;29;20136;-82
2024/01/11 17:33:58;;;;;;;130.00;52.40;;;;;;;;;;10055462;29;20162;-80
2024/01/11 17:38:59;;;;;;;102.83;45.83;;;;;;;;;;10054413;29;20140;-81
2024/01/11 17:44:00;;;;;;;99.50;42.17;;;;;;;;;;10037653;29;20043;-81
2024/01/11 17:49:01;;;;;;;109.37;44.90;;;;;;;;;;10061319;29;20049;-80
2024/01/11 17:54:03;;;;;;;91.83;39.93;;;;;;;;;;10040596;29;20033;-80
2024/01/11 17:59:05;;;;;;;119.57;48.53;;;;;;;;;;10053193;29;20037;-80
2024/01/11 18:04:07;;;;;;;83.87;38.23;;;;;;;;;;10051983;29;20060;-82
2024/01/11 18:09:08;;;;;;;104.43;41.93;;;;;;;;;;10053271;29;20046;-82
2024/01/11 18:14:09;;;;;;;79.37;34.10;;;;;;;;;;10054405;29;20043;-82
2024/01/11 18:19:13;;;;;;;76.10;32.70;;;;;;;;;;10055212;29;20484;-81
2024/01/11 18:24:14;;;;;;;82.03;35.83;;;;;;;;;;10037076;29;20048;-82
2024/01/11 18:29:15;;;;;;;75.50;32.57;;;;;;;;;;10053425;29;20121;-80
2024/01/11 18:34:16;;;;;;;74.67;33.03;;;;;;;;;;10051597;29;20029;-80
2024/01/11 18:39:17;;;;;;;76.73;31.13;;;;;;;;;;10052328;29;20029;-82
2024/01/11 18:44:19;;;;;;;65.00;26.60;;;;;;;;;;10043817;29;20038;-82
2024/01/11 18:49:20;;;;;;;61.17;26.40;;;;;;;;;;10040612;29;20037;-82
2024/01/11 18:54:21;;;;;;;65.40;27.70;;;;;;;;;;10053398;29;20038;-81
2024/01/11 18:59:24;;;;;;;69.67;29.07;;;;;;;;;;10050926;29;20038;-84
2024/01/11 19:04:25;;;;;;;69.87;30.00;;;;;;;;;;10035668;29;20152;-82
2024/01/11 19:09:33;;;;;;;69.93;30.43;;;;;;;;;;10063963;29;20056;-81
2024/01/11 19:14:34;;;;;;;71.13;29.10;;;;;;;;;;10048426;29;20045;-80
2024/01/11 19:19:36;;;;;;;69.17;29.03;;;;;;;;;;10054109;29;20038;-81
2024/01/11 19:24:37;;;;;;;62.00;25.63;;;;;;;;;;10052891;29;20116;-80
2024/01/11 19:29:38;;;;;;;65.80;26.90;;;;;;;;;;10050699;29;20585;-82
2024/01/11 19:34:39;;;;;;;65.87;27.17;;;;;;;;;;10051909;29;20041;-80
2024/01/11 19:39:40;;;;;;;61.67;24.73;;;;;;;;;;10056260;29;20494;-82
2024/01/11 19:44:41;;;;;;;62.60;24.83;;;;;;;;;;10040571;29;20125;-80
2024/01/11 19:49:42;;;;;;;53.43;23.37;;;;;;;;;;10049824;29;20630;-81
2024/01/11 19:54:44;;;;;;;55.33;23.73;;;;;;;;;;10049171;29;20029;-81
2024/01/11 19:59:52;;;;;;;49.63;21.23;;;;;;;;;;10048601;29;20041;-83
2024/01/11 20:04:55;;;;;;;50.90;23.30;;;;;;;;;;10048852;29;20144;-81
2024/01/11 20:09:56;;;;;;;50.77;21.00;;;;;;;;;;10048352;29;20041;-81
2024/01/11 20:14:57;;;;;;;51.50;23.43;;;;;;;;;;10052324;29;20045;-82
2024/01/11 20:19:58;;;;;;;52.47;23.23;;;;;;;;;;10052859;29;20037;-80
2024/01/11 20:24:59;;;;;;;52.93;22.63;;;;;;;;;;10054162;29;20038;-81
2024/01/11 20:30:00;;;;;;;51.87;23.37;;;;;;;;;;10049713;29;20045;-81
2024/01/11 20:35:02;;;;;;;47.43;19.63;;;;;;;;;;10036264;29;20421;-81
2024/01/11 20:40:05;;;;;;;43.97;17.30;;;;;;;;;;10050185;29;20398;-81
2024/01/11 20:45:06;;;;;;;52.03;18.67;;;;;;;;;;10049813;29;20068;-82
2024/01/11 20:50:07;;;;;;;44.57;17.73;;;;;;;;;;10053672;29;20037;-82
2024/01/11 20:55:08;;;;;;;43.33;19.57;;;;;;;;;;10059515;29;20171;-80
2024/01/11 21:00:10;;;;;;;40.90;16.73;;;;;;;;;;10048772;29;20510;-81
2024/01/11 21:05:11;;;;;;;39.03;16.27;;;;;;;;;;10064117;29;20506;-81
2024/01/11 21:10:12;;;;;;;40.23;16.53;;;;;;;;;;10055123;29;20052;-80
2024/01/11 21:15:13;;;;;;;42.33;18.93;;;;;;;;;;10056920;29;20565;-82
2024/01/11 21:20:14;;;;;;;44.67;17.43;;;;;;;;;;10069806;29;20034;-82
2024/01/11 21:25:15;;;;;;;46.43;20.20;;;;;;;;;;10056898;29;20124;-81
2024/01/11 21:30:16;;;;;;;41.33;18.23;;;;;;;;;;10057211;29;20059;-82
2024/01/11 21:35:18;;;;;;;50.23;20.40;;;;;;;;;;10068715;29;20389;-81
2024/01/11 21:40:19;;;;;;;47.80;19.37;;;;;;;;;;10067987;29;20722;-82
2024/01/11 21:45:20;;;;;;;49.87;18.53;;;;;;;;;;10056268;29;20045;-80
2024/01/11 21:50:21;;;;;;;50.33;21.63;;;;;;;;;;10064816;29;20044;-81
2024/01/11 21:55:22;;;;;;;52.53;21.33;;;;;;;;;;10041870;29;20073;-82
2024/01/11 22:00:23;;;;;;;49.50;20.13;;;;;;;;;;10041924;29;20065;-81
2024/01/11 22:05:24;;;;;;;52.40;20.57;;;;;;;;;;10058110;29;20065;-83
2024/01/11 22:10:27;;;;;;;37.23;18.57;;;;;;;;;;10054760;29;20041;-82
2024/01/11 22:15:28;;;;;;;42.47;17.80;;;;;;;;;;10053805;29;20061;-83
2024/01/11 22:20:29;;;;;;;46.63;19.53;;;;;;;;;;10056474;29;20402;-82
2024/01/11 22:25:30;;;;;;;50.17;20.60;;;;;;;;;;10053430;29;20044;-83
2024/01/11 22:30:31;;;;;;;66.83;25.93;;;;;;;;;;10055183;29;20523;-81
2024/01/11 22:35:32;;;;;;;54.13;21.53;;;;;;;;;;10055310;29;20112;-82
2024/01/11 22:40:33;;;;;;;50.33;20.03;;;;;;;;;;10053863;29;20033;-81
2024/01/11 22:45:34;;;;;;;44.97;18.90;;;;;;;;;;10060716;29;20058;-81
2024/01/11 22:50:35;;;;;;;50.30;19.53;;;;;;;;;;10054767;29;20065;-82
2024/01/11 22:55:37;;;;;;;46.77;18.57;;;;;;;;;;10054094;29;20038;-82
2024/01/11 23:00:38;;;;;;;49.57;19.53;;;;;;;;;;10062730;29;20024;-82
2024/01/11 23:05:40;;;;;;;47.93;20.70;;;;;;;;;;10056463;29;20102;-82
2024/01/11 23:10:41;;;;;;;49.13;20.83;;;;;;;;;;10038943;29;20037;-80
2024/01/11 23:15:42;;;;;;;46.23;19.73;;;;;;;;;;10082545;24;20528;-81
2024/01/11 23:20:43;;;;;;;50.50;21.20;;;;;;;;;;10082845;29;20798;-82
2024/01/11 23:25:44;;;;;;;56.40;20.63;;;;;;;;;;10088791;29;20450;-80
2024/01/11 23:30:45;;;;;;;49.70;20.53;;;;;;;;;;10106176;29;20139;-82
2024/01/11 23:35:46;;;;;;;49.97;19.73;;;;;;;;;;10127861;29;20032;-80
2024/01/11 23:40:47;;;;;;;45.30;17.67;;;;;;;;;;10119594;29;20041;-81
2024/01/11 23:45:48;;;;;;;56.13;20.00;;;;;;;;;;10119655;29;20045;-82
2024/01/11 23:50:49;;;;;;;48.47;20.30;;;;;;;;;;10127755;29;20856;-81
2024/01/11 23:55:51;;;;;;;46.00;19.43;;;;;;;;;;10119772;29;20445;-82
